Hannover, Germany

10:57 AM CEST on September 28, 2016 (GMT +0200)
Walsroder Straße | | Change Station

Elev 167 ft 52.46 °N, 9.74 °E | Updated 43 seconds ago

Mostly Cloudy
Mostly Cloudy
63.7 °F
Feels Like 63.7 °F
N
1.9
Wind Variable Wind from NW
Gusts 5.6 mph

Today
High -- | Low -- °F
--% Chance of Precip.
Yesterday
High -- | Low -- °F
Precip. -- in
Pressure 30.18 in
Visibility 6.2 miles
Clouds Few 2500 ft
Mostly Cloudy 3500 ft
Dew Point 54 °F
Humidity 69%
Rainfall 0.00 in
Snow Depth Not available.
7:17 AM 7:04 PM
Waning Crescent, 7% visible
METAR EDDV 280850Z 25013KT 220V280 9999 FEW025 BKN035 18/11 Q1022 BECMG 25015G25KT
Pressure 30.18 in
Visibility 6.2 miles
Clouds Few 2500 ft
Mostly Cloudy 3500 ft
Dew Point 54 °F
Humidity 69%
Rainfall 0.00 in
Snow Depth Not available.
7:17 AM 7:04 PM
Waning Crescent, 7% visible
METAR EDDV 280850Z 25013KT 220V280 9999 FEW025 BKN035 18/11 Q1022 BECMG 25015G25KT

10-Day Weather Forecast

×

Almanac

Astronomy

Sep. 28, 2016 Rise Set
Actual Time
Civil Twilight
Nautical Twilight
Astronomical Twilight
Moon
Length of Visible Light
Length of Day
Tomorrow will be .
, % of the Moon is Illuminated

Today's Extremes

Country Highs Country Lows

Community

WunderPhotos

Upload Photos

1,942,216 photos uploaded!

WunderBlog® & News

Nearby

Air Quality

  Air Quality AQ Index Pollutant
Not available.

Snow Depth

Station Depth Elevation

Earthquake Activity

City Distance Mag. Time & Date
Minimum magnitude displayed is 2.5.

Coastal Water Temperatures

Place Temperature

Stations

Nearby Weather Stations

Station Location Temp. Windchill Dew Point Humidity Wind Precip. Elev Updated Type